sensor_id;sensor_type;location;lat;lon;timestamp;pressure;altitude;pressure_sealevel;temperature;humidity
10392;BME280;5242;49.244;6.774;2022-11-20T00:06:41;99158.03;;;7.34;100.00
10392;BME280;5242;49.244;6.774;2022-11-20T00:14:13;99158.03;;;7.34;100.00
10392;BME280;5242;49.244;6.774;2022-11-20T00:21:44;99151.81;;;7.33;100.00
10392;BME280;5242;49.244;6.774;2022-11-20T00:29:16;99147.84;;;7.31;100.00
10392;BME280;5242;49.244;6.774;2022-11-20T00:36:47;99151.81;;;7.33;100.00
10392;BME280;5242;49.244;6.774;2022-11-20T00:44:19;99152.63;;;7.34;100.00
10392;BME280;5242;49.244;6.774;2022-11-20T00:51:50;99157.66;;;7.35;100.00
10392;BME280;5242;49.244;6.774;2022-11-20T00:59:22;99155.66;;;7.32;100.00
10392;BME280;5242;49.244;6.774;2022-11-20T01:06:54;99153.28;;;7.31;100.00
10392;BME280;5242;49.244;6.774;2022-11-20T01:14:25;99156.44;;;7.33;100.00
10392;BME280;5242;49.244;6.774;2022-11-20T01:21:57;99159.13;;;7.33;100.00
10392;BME280;5242;49.244;6.774;2022-11-20T01:29:28;99157.56;;;7.32;100.00
10392;BME280;5242;49.244;6.774;2022-11-20T01:37:00;99162.22;;;7.31;100.00
10392;BME280;5242;49.244;6.774;2022-11-20T01:44:56;99160.28;;;7.32;100.00
10392;BME280;5242;49.244;6.774;2022-11-20T01:53:16;99155.31;;;7.34;100.00
10392;BME280;5242;49.244;6.774;2022-11-20T02:00:27;99158.03;;;7.34;100.00
10392;BME280;5242;49.244;6.774;2022-11-20T02:07:59;99158.91;;;7.38;100.00
10392;BME280;5242;49.244;6.774;2022-11-20T02:15:32;99163.63;;;7.41;100.00
10392;BME280;5242;49.244;6.774;2022-11-20T02:30:57;99145.38;;;7.38;100.00
10392;BME280;5242;49.244;6.774;2022-11-20T02:38:28;99141.09;;;7.37;100.00
10392;BME280;5242;49.244;6.774;2022-11-20T02:45:59;99136.91;;;7.39;100.00
10392;BME280;5242;49.244;6.774;2022-11-20T02:53:31;99137.69;;;7.40;100.00
10392;BME280;5242;49.244;6.774;2022-11-20T03:01:02;99132.28;;;7.40;100.00
10392;BME280;5242;49.244;6.774;2022-11-20T03:08:34;99120.09;;;7.34;100.00
10392;BME280;5242;49.244;6.774;2022-11-20T03:16:12;99124.06;;;7.36;100.00
10392;BME280;5242;49.244;6.774;2022-11-20T03:23:44;99120.97;;;7.38;100.00
10392;BME280;5242;49.244;6.774;2022-11-20T03:31:17;99102.03;;;7.38;100.00
10392;BME280;5242;49.244;6.774;2022-11-20T03:38:50;99108.56;;;7.37;100.00
10392;BME280;5242;49.244;6.774;2022-11-20T03:46:23;99106.19;;;7.35;100.00
10392;BME280;5242;49.244;6.774;2022-11-20T03:53:57;99106.19;;;7.35;100.00
10392;BME280;5242;49.244;6.774;2022-11-20T04:01:31;99110.06;;;7.34;100.00
10392;BME280;5242;49.244;6.774;2022-11-20T04:09:04;99114.69;;;7.34;100.00
10392;BME280;5242;49.244;6.774;2022-11-20T04:16:36;99114.69;;;7.34;100.00
10392;BME280;5242;49.244;6.774;2022-11-20T04:24:07;99108.47;;;7.33;100.00
10392;BME280;5242;49.244;6.774;2022-11-20T04:31:39;99118.50;;;7.33;100.00
10392;BME280;5242;49.244;6.774;2022-11-20T04:39:12;99104.97;;;7.33;100.00
10392;BME280;5242;49.244;6.774;2022-11-20T04:46:45;99108.47;;;7.33;100.00
10392;BME280;5242;49.244;6.774;2022-11-20T04:54:16;99114.00;;;7.37;100.00
10392;BME280;5242;49.244;6.774;2022-11-20T05:01:48;99108.66;;;7.40;100.00
10392;BME280;5242;49.244;6.774;2022-11-20T05:09:19;99118.81;;;7.44;100.00
10392;BME280;5242;49.244;6.774;2022-11-20T05:16:51;99115.31;;;7.43;100.00
10392;BME280;5242;49.244;6.774;2022-11-20T05:24:22;99104.94;;;7.45;100.00
10392;BME280;5242;49.244;6.774;2022-11-20T05:31:54;99115.88;;;7.49;100.00
10392;BME280;5242;49.244;6.774;2022-11-20T05:39:26;99115.22;;;7.52;100.00
10392;BME280;5242;49.244;6.774;2022-11-20T05:46:57;99117.47;;;7.50;100.00
10392;BME280;5242;49.244;6.774;2022-11-20T05:54:29;99115.09;;;7.48;100.00
10392;BME280;5242;49.244;6.774;2022-11-20T06:02:00;99111.50;;;7.44;100.00
10392;BME280;5242;49.244;6.774;2022-11-20T06:09:32;99117.81;;;7.48;100.00
10392;BME280;5242;49.244;6.774;2022-11-20T06:17:03;99127.94;;;7.51;100.00
10392;BME280;5242;49.244;6.774;2022-11-20T06:24:35;99122.09;;;7.49;100.00
10392;BME280;5242;49.244;6.774;2022-11-20T06:32:06;99122.66;;;7.43;100.00
10392;BME280;5242;49.244;6.774;2022-11-20T06:39:38;99134.19;;;7.39;100.00
10392;BME280;5242;49.244;6.774;2022-11-20T06:47:09;99122.47;;;7.35;100.00
10392;BME280;5242;49.244;6.774;2022-11-20T06:54:41;99132.41;;;7.31;100.00
10392;BME280;5242;49.244;6.774;2022-11-20T07:02:12;99139.97;;;7.26;100.00
10392;BME280;5242;49.244;6.774;2022-11-20T07:09:44;99150.78;;;7.26;100.00
10392;BME280;5242;49.244;6.774;2022-11-20T07:17:15;99165.56;;;7.28;100.00
10392;BME280;5242;49.244;6.774;2022-11-20T07:24:48;99172.22;;;7.31;100.00
10392;BME280;5242;49.244;6.774;2022-11-20T07:32:19;99177.41;;;7.36;100.00
10392;BME280;5242;49.244;6.774;2022-11-20T07:39:51;99178.22;;;7.36;100.00
10392;BME280;5242;49.244;6.774;2022-11-20T07:47:22;99194.25;;;7.42;100.00
10392;BME280;5242;49.244;6.774;2022-11-20T07:54:53;99190.97;;;7.48;100.00
10392;BME280;5242;49.244;6.774;2022-11-20T08:02:25;99199.41;;;7.59;100.00
10392;BME280;5242;49.244;6.774;2022-11-20T08:09:57;99208.13;;;7.65;100.00
10392;BME280;5242;49.244;6.774;2022-11-20T08:17:29;99219.38;;;7.67;100.00
10392;BME280;5242;49.244;6.774;2022-11-20T08:25:00;99228.66;;;7.66;100.00
10392;BME280;5242;49.244;6.774;2022-11-20T08:32:32;99215.19;;;7.81;100.00
10392;BME280;5242;49.244;6.774;2022-11-20T08:40:04;99231.09;;;7.95;100.00
10392;BME280;5242;49.244;6.774;2022-11-20T08:47:35;99228.31;;;8.07;100.00
10392;BME280;5242;49.244;6.774;2022-11-20T08:55:08;99231.50;;;8.10;100.00
10392;BME280;5242;49.244;6.774;2022-11-20T09:02:39;99238.34;;;8.19;100.00
10392;BME280;5242;49.244;6.774;2022-11-20T09:10:11;99247.94;;;8.41;99.99
10392;BME280;5242;49.244;6.774;2022-11-20T09:18:00;99248.97;;;8.81;99.58
10392;BME280;5242;49.244;6.774;2022-11-20T09:25:32;99256.09;;;9.49;98.65
10392;BME280;5242;49.244;6.774;2022-11-20T09:33:04;99253.53;;;9.40;93.15
10392;BME280;5242;49.244;6.774;2022-11-20T09:40:40;99255.91;;;9.10;95.09
10392;BME280;5242;49.244;6.774;2022-11-20T09:56:09;99236.03;;;10.08;94.99
10392;BME280;5242;49.244;6.774;2022-11-20T10:03:56;99228.44;;;9.98;93.11
10392;BME280;5242;49.244;6.774;2022-11-20T10:35:29;99212.19;;;10.40;83.04
10392;BME280;5242;49.244;6.774;2022-11-20T10:43:23;99204.03;;;10.21;85.14
10392;BME280;5242;49.244;6.774;2022-11-20T10:51:16;99202.06;;;10.02;86.42
10392;BME280;5242;49.244;6.774;2022-11-20T11:06:36;99191.50;;;10.36;83.64
10392;BME280;5242;49.244;6.774;2022-11-20T11:14:11;99176.03;;;10.20;77.80
10392;BME280;5242;49.244;6.774;2022-11-20T11:21:51;99170.88;;;10.15;82.08
10392;BME280;5242;49.244;6.774;2022-11-20T11:29:26;99150.53;;;10.29;77.85
10392;BME280;5242;49.244;6.774;2022-11-20T11:37:01;99147.59;;;10.60;77.72
10392;BME280;5242;49.244;6.774;2022-11-20T11:44:34;99144.03;;;11.02;79.17
10392;BME280;5242;49.244;6.774;2022-11-20T11:52:25;99124.75;;;11.15;73.69
10392;BME280;5242;49.244;6.774;2022-11-20T12:00:09;99130.59;;;10.90;74.52
10392;BME280;5242;49.244;6.774;2022-11-20T12:07:43;99117.81;;;10.94;76.09
10392;BME280;5242;49.244;6.774;2022-11-20T12:15:26;99107.63;;;10.91;74.55
10392;BME280;5242;49.244;6.774;2022-11-20T12:23:15;99106.41;;;10.88;74.88
10392;BME280;5242;49.244;6.774;2022-11-20T12:46:41;99089.50;;;10.30;75.11
10392;BME280;5242;49.244;6.774;2022-11-20T13:02:37;99066.16;;;10.29;72.34
10392;BME280;5242;49.244;6.774;2022-11-20T13:18:04;99030.34;;;10.27;75.06
10392;BME280;5242;49.244;6.774;2022-11-20T13:25:39;99022.00;;;10.16;75.60
10392;BME280;5242;49.244;6.774;2022-11-20T13:33:29;99007.78;;;10.03;72.80
10392;BME280;5242;49.244;6.774;2022-11-20T13:41:01;98996.78;;;9.96;72.52
10392;BME280;5242;49.244;6.774;2022-11-20T13:48:56;98992.66;;;9.83;73.75
10392;BME280;5242;49.244;6.774;2022-11-20T13:56:43;98987.81;;;9.72;75.75
10392;BME280;5242;49.244;6.774;2022-11-20T14:04:28;98977.34;;;9.51;73.98
10392;BME280;5242;49.244;6.774;2022-11-20T14:12:03;98978.50;;;9.31;74.39
10392;BME280;5242;49.244;6.774;2022-11-20T14:19:35;98976.53;;;9.12;74.17
10392;BME280;5242;49.244;6.774;2022-11-20T14:27:19;98960.91;;;9.05;75.01
10392;BME280;5242;49.244;6.774;2022-11-20T14:34:52;98960.09;;;9.05;75.32
10392;BME280;5242;49.244;6.774;2022-11-20T14:42:28;98953.16;;;9.07;75.12
10392;BME280;5242;49.244;6.774;2022-11-20T14:50:00;98948.38;;;9.01;74.73
10392;BME280;5242;49.244;6.774;2022-11-20T14:57:38;98938.09;;;8.90;74.85
10392;BME280;5242;49.244;6.774;2022-11-20T15:05:10;98929.63;;;8.76;76.64
10392;BME280;5242;49.244;6.774;2022-11-20T15:20:18;98915.88;;;8.49;77.17
10392;BME280;5242;49.244;6.774;2022-11-20T15:27:55;98920.50;;;8.33;79.06
10392;BME280;5242;49.244;6.774;2022-11-20T15:35:27;98916.97;;;7.97;80.40
10392;BME280;5242;49.244;6.774;2022-11-20T15:42:58;98901.75;;;7.61;83.01
10392;BME280;5242;49.244;6.774;2022-11-20T15:58:20;98891.47;;;7.23;86.13
10392;BME280;5242;49.244;6.774;2022-11-20T16:05:51;98891.78;;;7.05;87.15
10392;BME280;5242;49.244;6.774;2022-11-20T16:13:23;98891.94;;;6.96;89.29
10392;BME280;5242;49.244;6.774;2022-11-20T16:21:13;98880.44;;;6.87;87.94
10392;BME280;5242;49.244;6.774;2022-11-20T16:28:44;98885.78;;;6.84;90.16
10392;BME280;5242;49.244;6.774;2022-11-20T16:36:16;98880.38;;;6.84;89.78
10392;BME280;5242;49.244;6.774;2022-11-20T16:43:49;98877.81;;;6.75;92.02
10392;BME280;5242;49.244;6.774;2022-11-20T16:51:22;98867.16;;;6.54;91.29
10392;BME280;5242;49.244;6.774;2022-11-20T16:58:56;98865.16;;;6.39;92.99
10392;BME280;5242;49.244;6.774;2022-11-20T17:06:36;98865.84;;;6.23;93.06
10392;BME280;5242;49.244;6.774;2022-11-20T17:14:09;98854.41;;;6.14;93.41
10392;BME280;5242;49.244;6.774;2022-11-20T17:21:41;98862.28;;;6.07;93.50
10392;BME280;5242;49.244;6.774;2022-11-20T17:29:15;98852.09;;;6.28;94.93
10392;BME280;5242;49.244;6.774;2022-11-20T17:36:47;98848.09;;;6.10;96.54
10392;BME280;5242;49.244;6.774;2022-11-20T17:44:18;98838.50;;;6.00;98.27
10392;BME280;5242;49.244;6.774;2022-11-20T17:51:50;98832.22;;;5.96;99.33
10392;BME280;5242;49.244;6.774;2022-11-20T17:59:21;98824.56;;;5.98;98.79
10392;BME280;5242;49.244;6.774;2022-11-20T18:06:53;98830.06;;;6.02;98.36
10392;BME280;5242;49.244;6.774;2022-11-20T18:14:24;98813.84;;;6.02;100.00
10392;BME280;5242;49.244;6.774;2022-11-20T18:22:03;98823.75;;;5.98;100.00
10392;BME280;5242;49.244;6.774;2022-11-20T18:29:35;98825.00;;;6.00;100.00
10392;BME280;5242;49.244;6.774;2022-11-20T18:37:07;98827.47;;;6.05;100.00
10392;BME280;5242;49.244;6.774;2022-11-20T18:44:40;98821.94;;;6.14;100.00
10392;BME280;5242;49.244;6.774;2022-11-20T18:52:29;98804.81;;;6.22;100.00
10392;BME280;5242;49.244;6.774;2022-11-20T19:00:01;98821.00;;;6.35;100.00
10392;BME280;5242;49.244;6.774;2022-11-20T19:07:39;98810.94;;;6.47;100.00
10392;BME280;5242;49.244;6.774;2022-11-20T19:15:11;98787.56;;;6.55;100.00
10392;BME280;5242;49.244;6.774;2022-11-20T19:22:43;98799.75;;;6.49;100.00
10392;BME280;5242;49.244;6.774;2022-11-20T19:30:14;98814.97;;;6.53;100.00
10392;BME280;5242;49.244;6.774;2022-11-20T19:37:46;98822.84;;;6.59;100.00
10392;BME280;5242;49.244;6.774;2022-11-20T19:45:17;98812.78;;;6.59;100.00
10392;BME280;5242;49.244;6.774;2022-11-20T19:52:49;98817.19;;;6.64;100.00
10392;BME280;5242;49.244;6.774;2022-11-20T20:00:28;98814.38;;;6.60;100.00
10392;BME280;5242;49.244;6.774;2022-11-20T20:08:03;98833.81;;;6.50;100.00
10392;BME280;5242;49.244;6.774;2022-11-20T20:15:38;98833.50;;;6.39;100.00
10392;BME280;5242;49.244;6.774;2022-11-20T20:23:12;98832.28;;;6.37;100.00
10392;BME280;5242;49.244;6.774;2022-11-20T20:30:43;98843.44;;;6.23;100.00
10392;BME280;5242;49.244;6.774;2022-11-20T20:38:15;98853.50;;;6.10;100.00
10392;BME280;5242;49.244;6.774;2022-11-20T20:45:47;98857.19;;;6.05;100.00
10392;BME280;5242;49.244;6.774;2022-11-20T20:53:19;98872.00;;;5.96;100.00
10392;BME280;5242;49.244;6.774;2022-11-20T21:00:51;98862.28;;;5.95;100.00
10392;BME280;5242;49.244;6.774;2022-11-20T21:08:23;98845.28;;;5.94;100.00
10392;BME280;5242;49.244;6.774;2022-11-20T21:15:55;98856.63;;;5.87;100.00
10392;BME280;5242;49.244;6.774;2022-11-20T21:23:27;98865.88;;;5.86;100.00
10392;BME280;5242;49.244;6.774;2022-11-20T21:31:09;98854.31;;;5.98;100.00
10392;BME280;5242;49.244;6.774;2022-11-20T21:38:41;98852.59;;;6.06;100.00
10392;BME280;5242;49.244;6.774;2022-11-20T21:46:14;98855.97;;;6.15;100.00
10392;BME280;5242;49.244;6.774;2022-11-20T21:53:47;98851.34;;;6.16;100.00
10392;BME280;5242;49.244;6.774;2022-11-20T22:01:25;98840.44;;;6.12;100.00
10392;BME280;5242;49.244;6.774;2022-11-20T22:08:57;98831.41;;;6.08;100.00
10392;BME280;5242;49.244;6.774;2022-11-20T22:16:28;98834.31;;;6.15;100.00
10392;BME280;5242;49.244;6.774;2022-11-20T22:24:00;98835.09;;;6.28;100.00
10392;BME280;5242;49.244;6.774;2022-11-20T22:31:32;98837.53;;;6.45;100.00
10392;BME280;5242;49.244;6.774;2022-11-20T22:39:04;98843.94;;;6.53;100.00
10392;BME280;5242;49.244;6.774;2022-11-20T22:46:36;98839.84;;;6.59;100.00
10392;BME280;5242;49.244;6.774;2022-11-20T22:54:11;98839.59;;;6.64;100.00
10392;BME280;5242;49.244;6.774;2022-11-20T23:01:43;98841.41;;;6.72;100.00
10392;BME280;5242;49.244;6.774;2022-11-20T23:09:14;98828.41;;;6.78;100.00
10392;BME280;5242;49.244;6.774;2022-11-20T23:16:47;98829.38;;;6.86;100.00
10392;BME280;5242;49.244;6.774;2022-11-20T23:24:20;98832.09;;;6.86;100.00
10392;BME280;5242;49.244;6.774;2022-11-20T23:31:51;98832.34;;;6.81;100.00
10392;BME280;5242;49.244;6.774;2022-11-20T23:39:23;98838.44;;;6.78;100.00
10392;BME280;5242;49.244;6.774;2022-11-20T23:46:54;98841.03;;;6.74;100.00
10392;BME280;5242;49.244;6.774;2022-11-20T23:54:26;98838.94;;;6.67;100.00
